createdAt,value
2019-05-09T00:05:26.689Z,2.3
2019-05-09T00:06:14.386Z,2.3
2019-05-09T00:07:04.182Z,2.3
2019-05-09T00:08:44.592Z,2.3
2019-05-09T00:09:34.509Z,2.3
2019-05-09T00:10:44.843Z,2.3
2019-05-09T00:12:04.370Z,2.3
2019-05-09T00:13:44.901Z,2.3
2019-05-09T00:14:34.724Z,2.3
2019-05-09T00:15:24.726Z,2.3
2019-05-09T00:16:14.982Z,2.3
2019-05-09T00:17:05.091Z,2.3
2019-05-09T00:17:54.973Z,2.3
2019-05-09T00:18:45.504Z,2.3
2019-05-09T00:19:35.029Z,2.3
2019-05-09T00:20:25.305Z,2.2
2019-05-09T00:21:15.093Z,2.2
2019-05-09T00:22:05.061Z,2.2
2019-05-09T00:22:55.343Z,2.2
2019-05-09T00:23:45.666Z,2.2
2019-05-09T00:24:35.271Z,2.2
2019-05-09T00:25:25.533Z,2.2
2019-05-09T00:26:15.438Z,2.2
2019-05-09T00:27:05.143Z,2.1
2019-05-09T00:27:55.610Z,2.2
2019-05-09T00:28:45.750Z,2.2
2019-05-09T00:29:34.901Z,2.2
2019-05-09T00:30:24.595Z,2.1
2019-05-09T00:31:15.643Z,2.2
2019-05-09T00:32:05.549Z,2.2
2019-05-09T00:32:55.398Z,2.1
2019-05-09T00:33:49.540Z,2.2
2019-05-09T00:35:24.830Z,2.1
2019-05-09T00:36:15.765Z,2.1
2019-05-09T00:37:04.838Z,2.1
2019-05-09T00:37:55.053Z,2.1
2019-05-09T00:38:45.463Z,2.1
2019-05-09T00:39:35.827Z,2.1
2019-05-09T00:40:25.843Z,2.1
2019-05-09T00:41:16.051Z,2.1
2019-05-09T00:42:06.389Z,2
2019-05-09T00:42:55.299Z,2
2019-05-09T00:43:45.329Z,2
2019-05-09T00:44:35.310Z,2
2019-05-09T00:45:25.861Z,2
2019-05-09T00:46:15.860Z,2
2019-05-09T00:47:05.945Z,2
2019-05-09T00:47:55.914Z,2
2019-05-09T00:48:45.602Z,1.9
2019-05-09T00:49:35.875Z,1.9
2019-05-09T00:50:25.282Z,1.9
2019-05-09T00:51:16.057Z,1.9
2019-05-09T00:52:05.365Z,1.9
2019-05-09T00:52:55.795Z,1.9
2019-05-09T00:53:46.409Z,1.9
2019-05-09T00:54:35.842Z,1.9
2019-05-09T00:55:25.939Z,1.9
2019-05-09T00:56:15.566Z,1.8
2019-05-09T00:57:05.638Z,1.8
2019-05-09T00:57:55.435Z,1.8
2019-05-09T00:58:46.126Z,1.8
2019-05-09T00:59:35.811Z,1.8
2019-05-09T01:00:26.316Z,1.8
2019-05-09T01:01:15.945Z,1.8
2019-05-09T01:02:05.653Z,1.8
2019-05-09T01:02:56.036Z,1.8
2019-05-09T01:03:46.115Z,1.8
2019-05-09T01:04:35.640Z,1.8
2019-05-09T01:05:26.231Z,1.8
2019-05-09T01:06:16.036Z,1.8
2019-05-09T01:07:06.349Z,1.7
2019-05-09T01:07:55.879Z,1.7
2019-05-09T01:08:46.476Z,1.7
2019-05-09T01:09:35.971Z,1.7
2019-05-09T01:10:26.598Z,1.7
2019-05-09T01:11:17.624Z,1.7
2019-05-09T01:12:06.714Z,1.6
2019-05-09T01:12:56.498Z,1.6
2019-05-09T01:13:46.571Z,1.6
2019-05-09T01:14:36.918Z,1.6
2019-05-09T01:15:26.668Z,1.6
2019-05-09T01:16:16.740Z,1.6
2019-05-09T01:17:07.093Z,1.6
2019-05-09T01:17:57.198Z,1.6
2019-05-09T01:18:46.983Z,1.6
2019-05-09T01:19:36.988Z,1.6
2019-05-09T01:20:27.048Z,1.6
2019-05-09T01:21:16.838Z,1.6
2019-05-09T01:22:07.449Z,1.6
2019-05-09T01:22:57.235Z,1.6
2019-05-09T01:23:47.285Z,1.6
2019-05-09T01:24:37.630Z,1.6
2019-05-09T01:25:27.409Z,1.6
2019-05-09T01:26:17.467Z,1.6
2019-05-09T01:27:07.522Z,1.6
2019-05-09T01:27:57.327Z,1.6
2019-05-09T01:28:47.659Z,1.6
2019-05-09T01:29:37.427Z,1.5
2019-05-09T01:30:27.497Z,1.6
2019-05-09T01:31:18.107Z,1.6
2019-05-09T01:32:08.175Z,1.6
2019-05-09T01:32:58.235Z,1.6
2019-05-09T01:33:48.327Z,1.5
2019-05-09T01:34:38.349Z,1.6
2019-05-09T01:35:28.146Z,1.6
2019-05-09T01:36:18.192Z,1.6
2019-05-09T01:37:08.271Z,1.6
2019-05-09T01:37:58.312Z,1.6
2019-05-09T01:38:48.385Z,1.6
2019-05-09T01:40:28.766Z,1.6
2019-05-09T01:41:35.680Z,1.6
2019-05-09T01:44:39.057Z,1.6
2019-05-09T01:46:18.923Z,1.6
2019-05-09T02:18:06.930Z,1.7
2019-05-09T02:22:14.009Z,1.7
2019-05-09T02:25:34.479Z,1.7
2019-05-09T02:26:24.472Z,1.7
2019-05-09T02:28:04.466Z,1.7
2019-05-09T02:28:54.737Z,1.8
2019-05-09T02:29:44.449Z,1.7
2019-05-09T02:30:36.239Z,1.8
2019-05-09T02:31:25.903Z,1.8
2019-05-09T02:32:15.324Z,1.8
2019-05-09T02:33:05.545Z,1.8
2019-05-09T02:33:55.962Z,1.8
2019-05-09T02:34:45.484Z,1.8
2019-05-09T02:36:02.628Z,1.8
2019-05-09T02:42:19.978Z,1.8
2019-05-09T02:52:13.973Z,1.8
2019-05-09T02:53:54.083Z,1.9
2019-05-09T02:54:44.163Z,1.9
2019-05-09T02:55:33.975Z,1.9
2019-05-09T02:56:24.005Z,1.9
2019-05-09T02:57:14.082Z,1.9
2019-05-09T02:58:04.378Z,1.9
2019-05-09T02:58:54.244Z,1.9
2019-05-09T02:59:43.987Z,1.9
2019-05-09T03:00:34.569Z,1.9
2019-05-09T03:01:24.097Z,1.9
2019-05-09T03:02:14.692Z,1.9
2019-05-09T03:03:04.498Z,1.9
2019-05-09T03:06:38.626Z,1.9
2019-05-09T03:08:15.330Z,1.9
2019-05-09T03:09:08.551Z,1.9
2019-05-09T03:12:40.999Z,2
2019-05-09T03:14:09.522Z,2
2019-05-09T03:16:39.321Z,2.1
2019-05-09T03:20:49.469Z,2.1
2019-05-09T03:42:45.315Z,2.4
2019-05-09T04:06:04.478Z,2.9
2019-05-09T04:39:24.631Z,3.9
2019-05-09T04:42:47.022Z,4.1
2019-05-09T04:43:40.276Z,4.2
2019-05-09T04:47:44.581Z,4.4
2019-05-09T05:00:53.698Z,5.4
2019-05-09T05:01:43.763Z,5.6
2019-05-09T05:03:23.880Z,5.7
2019-05-09T05:04:13.661Z,5.8
2019-05-09T05:05:04.002Z,5.9
2019-05-09T05:05:54.063Z,6
2019-05-09T05:06:43.581Z,6.1
2019-05-09T05:07:33.903Z,6.3
2019-05-09T05:08:23.985Z,6.4
2019-05-09T05:09:14.298Z,6.5
2019-05-09T05:10:04.484Z,6.7
2019-05-09T05:10:54.407Z,6.9
2019-05-09T05:11:49.608Z,7.1
2019-05-09T05:13:31.180Z,7.4
2019-05-09T05:15:04.452Z,7.9
2019-05-09T05:15:54.785Z,8.1
2019-05-09T05:16:44.708Z,8.4
2019-05-09T05:17:34.887Z,8.6
2019-05-09T05:18:25.012Z,8.9
2019-05-09T05:19:14.737Z,9.2
2019-05-09T05:20:05.102Z,9.5
2019-05-09T05:20:57.339Z,9.8
2019-05-09T05:21:45.219Z,10.1
2019-05-09T05:22:35.252Z,10.4
2019-05-09T05:23:25.047Z,10.6
2019-05-09T05:24:15.364Z,10.9
2019-05-09T05:25:05.177Z,11.2
2019-05-09T05:25:55.219Z,11.4
2019-05-09T05:26:45.297Z,11.7
2019-05-09T05:27:35.339Z,11.9
2019-05-09T05:28:27.602Z,12.2
2019-05-09T05:29:18.216Z,12.4
2019-05-09T05:30:55.570Z,13.1
2019-05-09T05:31:48.226Z,13.4
2019-05-09T05:33:28.254Z,14.2
2019-05-09T05:34:15.558Z,14.6
2019-05-09T05:35:08.148Z,14.9
2019-05-09T05:36:48.143Z,15.8
2019-05-09T05:37:38.928Z,16.2
2019-05-09T05:43:48.537Z,19.4
2019-05-09T05:46:51.974Z,21.7
2019-05-09T06:04:49.933Z,38.6
2019-05-09T06:05:48.155Z,39.4
2019-05-09T06:08:50.693Z,40.4
2019-05-09T06:09:41.028Z,40.8
2019-05-09T06:10:31.781Z,41.1
2019-05-09T06:11:20.722Z,41.4
2019-05-09T06:12:10.460Z,41.6
2019-05-09T06:13:00.725Z,41.8
2019-05-09T06:14:12.861Z,42
2019-05-09T06:15:30.950Z,42.2
2019-05-09T06:18:51.483Z,42.4
2019-05-09T06:19:41.300Z,42.4
2019-05-09T06:20:31.603Z,42.4
2019-05-09T06:21:21.680Z,42.4
2019-05-09T06:22:11.728Z,42.4
2019-05-09T06:23:01.780Z,42.4
2019-05-09T06:23:51.607Z,42.4
2019-05-09T06:24:41.875Z,42.4
2019-05-09T06:25:32.347Z,42.4
2019-05-09T06:26:21.765Z,42.4
2019-05-09T06:27:12.615Z,42.4
2019-05-09T06:28:01.597Z,42.4
2019-05-09T06:28:52.232Z,42.5
2019-05-09T06:29:42.250Z,42.5
2019-05-09T06:30:33.136Z,42.5
2019-05-09T06:32:11.872Z,42.6
2019-05-09T06:33:09.749Z,42.6
2019-05-09T06:36:22.864Z,42.8
2019-05-09T06:37:12.314Z,42.8
2019-05-09T06:38:02.854Z,42.8
2019-05-09T06:38:53.171Z,42.8
2019-05-09T06:39:42.200Z,42.9
2019-05-09T06:40:32.821Z,42.8
2019-05-09T06:41:23.099Z,42.8
2019-05-09T06:42:13.164Z,42.7
2019-05-09T06:43:03.237Z,42.7
2019-05-09T06:43:54.789Z,42.7
2019-05-09T06:45:33.122Z,42.8
2019-05-09T06:46:23.513Z,42.9
2019-05-09T06:47:13.508Z,43
2019-05-09T06:48:03.586Z,43.1
2019-05-09T06:48:53.770Z,43.1
2019-05-09T06:50:33.768Z,43.1
2019-05-09T06:51:23.798Z,43
2019-05-09T06:53:53.715Z,42.8
2019-05-09T06:54:44.010Z,42.8
2019-05-09T06:56:23.905Z,42.8
2019-05-09T06:58:54.070Z,42.4
2019-05-09T07:04:34.720Z,42.2
2019-05-09T07:05:24.782Z,42.3
2019-05-09T07:07:08.427Z,42.3
2019-05-09T07:08:48.075Z,42.1
2019-05-09T07:09:35.593Z,42
2019-05-09T07:10:25.402Z,41.9
2019-05-09T07:11:18.873Z,41.8
2019-05-09T07:12:55.862Z,41.7
2019-05-09T07:13:47.732Z,41.7
2019-05-09T07:14:43.263Z,41.7
2019-05-09T07:16:18.368Z,41.9
2019-05-09T10:05:35.162Z,42.3
2019-05-09T10:08:57.601Z,41.5
2019-05-09T10:10:35.611Z,41.3
2019-05-09T10:11:25.294Z,41.1
2019-05-09T10:12:17.931Z,41.1
2019-05-09T10:13:58.292Z,40.9
2019-05-09T10:16:34.121Z,40.4
2019-05-09T10:18:58.773Z,40.1
2019-05-09T10:20:00.314Z,40
2019-05-09T10:22:27.086Z,40
2019-05-09T10:28:56.035Z,40.5
2019-05-09T10:29:49.759Z,40.7
2019-05-09T10:36:44.141Z,42
2019-05-09T10:42:20.046Z,43
2019-05-09T10:47:03.090Z,43.9
2019-05-09T10:51:11.765Z,44.8
2019-05-09T10:57:51.129Z,44.9
2019-05-09T12:05:35.091Z,26.6
2019-05-09T12:06:25.110Z,26.3
2019-05-09T12:07:17.577Z,25.9
2019-05-09T12:08:54.749Z,25.4
2019-05-09T12:09:44.827Z,25.1
2019-05-09T12:10:37.961Z,24.8
2019-05-09T12:12:15.316Z,24.3
2019-05-09T12:13:05.303Z,24.1
2019-05-09T12:13:57.833Z,23.9
2019-05-09T12:15:38.744Z,23.6
2019-05-09T12:17:15.664Z,23.2
2019-05-09T12:18:12.961Z,23.1
2019-05-09T12:19:45.349Z,22.8
2019-05-09T12:20:37.981Z,22.6
2019-05-09T12:27:18.727Z,21.9
2019-05-09T12:41:33.492Z,20.8
2019-05-09T12:48:20.621Z,20.8
2019-05-09T12:59:54.667Z,21.3
2019-05-09T13:09:54.850Z,21.9
2019-05-09T13:16:54.793Z,22.4
2019-05-09T13:18:30.846Z,22.5
2019-05-09T13:21:34.963Z,22.8
2019-05-09T13:31:37.832Z,24.4
2019-05-09T13:39:11.316Z,26.2
2019-05-09T13:44:17.810Z,27.1
2019-05-09T13:49:15.479Z,27.7
2019-05-09T13:50:19.250Z,28
2019-05-09T13:52:10.613Z,28.1
2019-05-09T13:57:03.171Z,27.9
2019-05-09T14:06:34.690Z,26.1
2019-05-09T14:07:27.659Z,25.9
2019-05-09T14:09:04.903Z,25.6
2019-05-09T14:09:55.210Z,25.4
2019-05-09T14:10:48.133Z,25.3
2019-05-09T14:12:25.385Z,24.9
2019-05-09T14:13:15.902Z,24.8
2019-05-09T14:14:05.518Z,24.7
2019-05-09T14:14:57.929Z,24.6
2019-05-09T14:16:35.712Z,24.4
2019-05-09T14:17:55.122Z,24.3
2019-05-09T14:19:51.424Z,24
2019-05-09T14:23:21.862Z,23.3
2019-05-09T14:24:20.422Z,23.1
2019-05-09T14:27:30.992Z,22.7
2019-05-09T14:29:19.965Z,22.5
2019-05-09T14:30:00.976Z,22.4
2019-05-09T14:31:40.992Z,22.3
2019-05-09T14:32:39.626Z,22.2
2019-05-09T14:33:20.891Z,22.1
2019-05-09T14:34:10.941Z,22.1
2019-05-09T14:35:00.974Z,22
2019-05-09T14:35:51.283Z,21.9
2019-05-09T14:36:50.852Z,21.9
2019-05-09T14:38:21.226Z,21.8
2019-05-09T14:39:11.528Z,21.6
2019-05-09T14:40:11.186Z,21.6
2019-05-09T14:41:41.734Z,21.4
2019-05-09T14:42:31.033Z,21.4
2019-05-09T14:43:21.555Z,21.3
2019-05-09T14:44:11.889Z,21.2
2019-05-09T14:45:52.033Z,21
2019-05-09T14:46:43.011Z,20.9
2019-05-09T14:47:31.908Z,20.8
2019-05-09T14:48:22.197Z,20.6
2019-05-09T14:49:12.336Z,20.6
2019-05-09T14:50:02.367Z,20.4
2019-05-09T14:50:52.368Z,20.3
2019-05-09T14:51:42.153Z,20.3
2019-05-09T14:52:32.525Z,20.1
2019-05-09T14:53:22.553Z,19.9
2019-05-09T14:54:12.356Z,19.8
2019-05-09T14:55:02.770Z,19.7
2019-05-09T14:55:52.480Z,19.5
2019-05-09T14:56:44.410Z,19.4
2019-05-09T14:57:32.869Z,19.3
2019-05-09T14:58:22.937Z,19.1
2019-05-09T14:59:12.985Z,18.9
2019-05-09T15:00:02.513Z,18.8
2019-05-09T15:01:45.688Z,18.6
2019-05-09T15:03:23.283Z,18.3
2019-05-09T15:04:13.089Z,18.2
2019-05-09T15:05:09.845Z,18.1
2019-05-09T15:06:42.984Z,17.8
2019-05-09T15:07:33.036Z,17.6
2019-05-09T15:08:23.387Z,17.5
2019-05-09T15:09:13.432Z,17.4
2019-05-09T15:10:04.047Z,17.3
2019-05-09T15:10:53.272Z,17.1
2019-05-09T15:12:33.673Z,16.8
2019-05-09T15:13:23.999Z,16.7
2019-05-09T15:14:13.784Z,16.6
2019-05-09T15:15:04.296Z,16.4
2019-05-09T15:15:53.919Z,16.3
2019-05-09T15:16:44.244Z,16.2
2019-05-09T15:17:33.764Z,16.1
2019-05-09T15:18:24.106Z,15.9
2019-05-09T15:19:14.732Z,15.8
2019-05-09T15:20:04.214Z,15.7
2019-05-09T15:20:54.546Z,15.6
2019-05-09T15:21:44.606Z,15.6
2019-05-09T15:22:34.408Z,15.4
2019-05-09T15:23:24.278Z,15.3
2019-05-09T15:24:14.799Z,15.3
2019-05-09T15:25:04.636Z,15.2
2019-05-09T15:25:54.990Z,15.1
2019-05-09T15:26:44.413Z,15
2019-05-09T15:27:35.051Z,14.9
2019-05-09T15:28:25.088Z,14.8
2019-05-09T15:29:15.153Z,14.8
2019-05-09T15:30:05.223Z,14.7
2019-05-09T15:30:55.005Z,14.6
2019-05-09T15:33:27.394Z,14.4
2019-05-09T15:36:48.098Z,14.1
2019-05-09T15:39:15.338Z,13.9
2019-05-09T15:50:24.599Z,13.3
2019-05-09T15:56:49.545Z,13
2019-05-09T16:06:35.379Z,12.7
2019-05-09T16:08:15.012Z,12.6
2019-05-09T16:09:12.723Z,12.6
2019-05-09T16:10:45.193Z,12.6
2019-05-09T16:11:35.004Z,12.6
2019-05-09T16:12:27.578Z,12.6
2019-05-09T16:14:07.416Z,12.5
2019-05-09T16:14:54.952Z,12.4
2019-05-09T16:15:44.978Z,12.4
2019-05-09T16:16:35.323Z,12.4
2019-05-09T16:17:28.865Z,12.4
2019-05-09T16:19:05.783Z,12.3
2019-05-09T16:19:58.273Z,12.3
2019-05-09T16:20:48.413Z,12.3
2019-05-09T16:22:28.836Z,12.3
2019-05-09T16:25:48.915Z,12.2
2019-05-09T16:28:19.067Z,12.2
2019-05-09T16:33:19.338Z,12.1
2019-05-09T16:35:53.370Z,12
2019-05-09T16:39:09.004Z,11.9
2019-05-09T16:49:20.603Z,11.6
2019-05-09T16:51:08.304Z,11.6
2019-05-09T17:57:32.980Z,10.5
2019-05-09T17:58:34.977Z,10.5
2019-05-09T18:00:03.155Z,10.4
2019-05-09T18:02:33.265Z,10.4
2019-05-09T18:03:23.345Z,10.4
2019-05-09T18:04:13.110Z,10.4
2019-05-09T18:06:34.269Z,10.4
2019-05-09T18:07:24.559Z,10.4
2019-05-09T18:08:14.899Z,10.3
2019-05-09T18:09:05.104Z,10.4
2019-05-09T18:09:55.001Z,10.3
2019-05-09T18:10:44.822Z,10.3
2019-05-09T18:11:37.545Z,10.3
2019-05-09T18:13:23.517Z,10.3
2019-05-09T18:14:55.181Z,10.3
2019-05-09T18:15:45.148Z,10.3
2019-05-09T18:16:35.496Z,10.3
2019-05-09T18:17:27.382Z,10.2
2019-05-09T18:19:07.857Z,10.2
2019-05-09T18:20:45.508Z,10.2
2019-05-09T18:21:52.886Z,10.1
2019-05-09T18:23:18.086Z,10.2
2019-05-09T18:24:58.195Z,10.1
2019-05-09T18:26:38.698Z,10.1
2019-05-09T18:29:58.728Z,10.1
2019-05-09T18:34:08.908Z,10
2019-05-09T18:42:28.875Z,9.9
2019-05-09T18:47:29.632Z,9.8
2019-05-09T18:49:57.657Z,9.8
2019-05-09T18:54:58.283Z,9.8
2019-05-09T19:10:53.811Z,9.6
2019-05-09T19:28:25.060Z,9.6
2019-05-09T19:52:40.245Z,9.4
2019-05-09T19:58:22.882Z,9.4
2019-05-09T19:59:12.961Z,9.4
2019-05-09T20:00:53.081Z,9.4
2019-05-09T20:01:42.875Z,9.4
2019-05-09T20:02:32.976Z,9.4
2019-05-09T20:04:13.028Z,9.4
2019-05-09T20:05:03.090Z,9.4
2019-05-09T20:06:43.230Z,9.4
2019-05-09T20:07:33.593Z,9.4
2019-05-09T20:08:23.914Z,9.4
2019-05-09T20:09:13.695Z,9.4
2019-05-09T20:10:03.743Z,9.4
2019-05-09T20:10:53.217Z,9.4
2019-05-09T20:11:43.858Z,9.4
2019-05-09T20:12:33.660Z,9.4
2019-05-09T20:13:23.820Z,9.4
2019-05-09T20:14:13.792Z,9.4
2019-05-09T20:15:03.966Z,9.4
2019-05-09T20:15:54.134Z,9.4
2019-05-09T20:16:43.697Z,9.4
2019-05-09T20:17:34.310Z,9.4
2019-05-09T20:18:24.372Z,9.4
2019-05-09T20:19:14.154Z,9.4
2019-05-09T20:20:04.588Z,9.4
2019-05-09T20:20:54.580Z,9.4
2019-05-09T20:21:44.316Z,9.4
2019-05-09T20:22:34.657Z,9.4
2019-05-09T20:23:24.704Z,9.4
2019-05-09T20:24:14.830Z,9.4
2019-05-09T20:25:04.894Z,9.4
2019-05-09T20:25:54.917Z,9.4
2019-05-09T20:26:44.167Z,9.4
2019-05-09T20:27:35.020Z,9.4
2019-05-09T20:28:25.127Z,9.4
2019-05-09T20:29:14.638Z,9.3
2019-05-09T20:30:04.918Z,9.4
2019-05-09T20:30:55.266Z,9.3
2019-05-09T20:31:44.751Z,9.4
2019-05-09T20:32:35.156Z,9.3
2019-05-09T20:33:25.212Z,9.3
2019-05-09T20:34:15.522Z,9.3
2019-05-09T20:35:05.618Z,9.3
2019-05-09T20:35:55.647Z,9.3
2019-05-09T20:36:45.714Z,9.3
2019-05-09T20:37:35.208Z,9.3
2019-05-09T20:38:25.517Z,9.3
2019-05-09T20:39:15.974Z,9.3
2019-05-09T20:40:05.883Z,9.3
2019-05-09T20:40:55.408Z,9.3
2019-05-09T20:41:46.009Z,9.3
2019-05-09T20:42:35.794Z,9.3
2019-05-09T20:43:25.889Z,9.3
2019-05-09T20:44:16.196Z,9.3
2019-05-09T20:45:06.002Z,9.3
2019-05-09T20:45:56.118Z,9.3
2019-05-09T20:46:46.418Z,9.3
2019-05-09T20:47:36.505Z,9.3
2019-05-09T20:48:25.943Z,9.3
2019-05-09T20:49:16.560Z,9.3
2019-05-09T20:50:06.652Z,9.3
2019-05-09T20:50:56.416Z,9.3
2019-05-09T20:51:46.768Z,9.3
2019-05-09T20:52:36.611Z,9.3
2019-05-09T20:53:26.580Z,9.3
2019-05-09T20:54:23.357Z,9.3
2019-05-09T20:55:57.025Z,9.3
2019-05-09T20:56:46.832Z,9.3
2019-05-09T20:57:37.197Z,9.3
2019-05-09T20:58:26.978Z,9.3
2019-05-09T20:59:17.293Z,9.3
2019-05-09T21:00:07.577Z,9.3
2019-05-09T21:01:46.914Z,9.3
2019-05-09T21:02:36.786Z,9.2
2019-05-09T21:03:27.585Z,9.3
2019-05-09T21:04:17.653Z,9.2
2019-05-09T21:06:47.550Z,9.2
2019-05-09T21:07:37.873Z,9.2
2019-05-09T21:09:18.017Z,9.2
2019-05-09T21:15:08.414Z,9.2
2019-05-09T21:53:43.160Z,9.1
2019-05-09T22:16:52.887Z,9.1
2019-05-09T22:17:43.035Z,9.1
2019-05-09T22:19:23.078Z,9.1
2019-05-09T22:20:13.145Z,9.1
2019-05-09T22:21:03.200Z,9.1
2019-05-09T22:21:53.338Z,9.1
2019-05-09T22:22:43.316Z,9.1
2019-05-09T22:23:33.103Z,9.1
2019-05-09T22:24:23.442Z,9.1
2019-05-09T22:25:13.490Z,9.1
2019-05-09T22:26:03.650Z,9.1
2019-05-09T22:26:53.612Z,9.1
2019-05-09T22:27:43.690Z,9.1
2019-05-09T22:28:33.485Z,9.1
2019-05-09T22:29:23.854Z,9.1
2019-05-09T22:30:13.599Z,9.1
2019-05-09T22:31:03.384Z,9.1
2019-05-09T22:31:53.994Z,9.1
2019-05-09T22:32:43.535Z,9.1
2019-05-09T22:33:33.833Z,9.1
2019-05-09T22:34:23.908Z,9.1
2019-05-09T22:35:14.257Z,9.1
2019-05-09T22:36:04.087Z,9.1
2019-05-09T22:36:54.349Z,9.1
2019-05-09T22:37:43.861Z,9.1
2019-05-09T22:38:34.554Z,9.1
2019-05-09T22:39:24.519Z,9.1
2019-05-09T22:40:14.629Z,9.1
2019-05-09T22:41:04.121Z,9.1
2019-05-09T22:41:54.454Z,9.1
2019-05-09T22:42:44.875Z,9.1
2019-05-09T22:43:34.844Z,9.1
2019-05-09T22:44:24.955Z,9.1
2019-05-09T22:45:15.087Z,9.1
2019-05-09T22:46:05.025Z,9.1
2019-05-09T22:46:54.806Z,9.1
2019-05-09T22:47:45.151Z,9.1
2019-05-09T22:48:35.201Z,9.1
2019-05-09T22:49:25.271Z,9.1
2019-05-09T22:50:15.113Z,9.1
2019-05-09T22:51:05.108Z,9.1
2019-05-09T22:51:55.176Z,9.1
2019-05-09T22:52:45.263Z,9.1
2019-05-09T22:53:35.286Z,9.1
2019-05-09T22:54:25.355Z,9.1
2019-05-09T22:55:15.754Z,9.1
2019-05-09T22:56:05.813Z,9.1
2019-05-09T22:56:55.797Z,9.1
2019-05-09T22:57:45.941Z,9.1
2019-05-09T22:58:35.935Z,9.1
2019-05-09T22:59:25.163Z,9.1
2019-05-09T23:00:16.062Z,9.1
2019-05-09T23:01:05.833Z,9.1
2019-05-09T23:01:56.177Z,9.1
2019-05-09T23:02:46.263Z,9.1
2019-05-09T23:03:36.284Z,9.1
2019-05-09T23:04:25.855Z,9.1
2019-05-09T23:05:16.117Z,9.1
2019-05-09T23:06:06.567Z,9.1
2019-05-09T23:06:56.292Z,9.1
2019-05-09T23:07:46.577Z,9.1
2019-05-09T23:08:36.405Z,9.1
2019-05-09T23:09:26.702Z,9.2
2019-05-09T23:10:16.789Z,9.1
2019-05-09T23:11:06.020Z,9.1
2019-05-09T23:11:56.906Z,9.1
2019-05-09T23:12:46.399Z,9.2
2019-05-09T23:13:37.024Z,9.1
2019-05-09T23:14:27.092Z,9.2
2019-05-09T23:15:16.856Z,9.2
2019-05-09T23:16:07.195Z,9.1
2019-05-09T23:16:57.264Z,9.1
2019-05-09T23:17:47.041Z,9.1
2019-05-09T23:18:36.877Z,9.1
2019-05-09T23:19:27.177Z,9.1
2019-05-09T23:20:17.489Z,9.2
2019-05-09T23:21:57.631Z,9.1
2019-05-09T23:22:47.676Z,9.2
2019-05-09T23:24:30.484Z,9.2
2019-05-09T23:26:07.664Z,9.2
2019-05-09T23:27:48.049Z,9.1
2019-05-09T23:54:49.421Z,9.1
